createdAt,value
2018-11-26T00:01:30.158Z,44.40
2018-11-26T00:03:58.481Z,35.13
2018-11-26T00:06:26.707Z,39.30
2018-11-26T00:08:54.928Z,35.93
2018-11-26T00:11:30.448Z,36.60
2018-11-26T00:13:58.674Z,34.60
2018-11-26T00:16:26.896Z,40.20
2018-11-26T00:18:55.128Z,35.70
2018-11-26T00:21:23.347Z,38.13
2018-11-26T00:23:51.565Z,36.40
2018-11-26T00:26:19.815Z,31.20
2018-11-26T00:28:48.028Z,35.03
2018-11-26T00:31:16.264Z,36.63
2018-11-26T00:33:44.599Z,38.77
2018-11-26T00:36:12.824Z,34.53
2018-11-26T00:38:41.046Z,36.30
2018-11-26T00:41:09.351Z,38.80
2018-11-26T00:43:37.575Z,43.83
2018-11-26T00:46:06.086Z,40.83
2018-11-26T00:48:34.319Z,33.77
2018-11-26T00:51:02.545Z,30.33
2018-11-26T00:53:30.760Z,30.30
2018-11-26T00:55:59.020Z,34.47
2018-11-26T00:58:27.320Z,33.40
2018-11-26T01:00:55.545Z,33.27
2018-11-26T01:03:23.787Z,34.70
2018-11-26T01:05:51.995Z,36.10
2018-11-26T01:08:20.220Z,35.30
2018-11-26T01:10:48.481Z,35.60
2018-11-26T01:13:16.703Z,29.63
2018-11-26T01:15:44.935Z,33.60
2018-11-26T01:18:13.239Z,34.57
2018-11-26T01:20:41.458Z,36.03
2018-11-26T01:23:09.668Z,28.97
2018-11-26T01:25:37.987Z,33.03
2018-11-26T01:28:06.674Z,29.57
2018-11-26T01:30:35.457Z,30.73
2018-11-26T01:33:03.739Z,30.17
2018-11-26T01:35:32.021Z,32.43
2018-11-26T01:38:00.268Z,33.80
2018-11-26T01:40:34.072Z,28.60
2018-11-26T01:43:02.284Z,37.00
2018-11-26T01:45:30.507Z,30.80
2018-11-26T01:47:58.774Z,31.53
2018-11-26T01:50:26.992Z,31.67
2018-11-26T01:52:55.208Z,33.70
2018-11-26T01:55:23.497Z,31.23
2018-11-26T01:57:51.698Z,28.67
2018-11-26T02:00:25.389Z,33.30
2018-11-26T02:02:53.787Z,35.57
2018-11-26T02:05:22.104Z,35.90
2018-11-26T02:07:50.545Z,32.10
2018-11-26T02:10:19.790Z,31.07
2018-11-26T02:12:48.013Z,32.70
2018-11-26T02:15:49.192Z,34.13
2018-11-26T02:18:17.420Z,31.97
2018-11-26T02:20:45.643Z,31.60
2018-11-26T02:23:13.884Z,34.07
2018-11-26T02:25:42.092Z,35.10
2018-11-26T02:28:10.296Z,30.73
2018-11-26T02:30:38.533Z,37.60
2018-11-26T02:33:06.771Z,38.87
2018-11-26T02:35:35.008Z,35.90
2018-11-26T02:38:03.535Z,29.90
2018-11-26T02:40:32.649Z,28.33
2018-11-26T02:43:00.872Z,29.47
2018-11-26T02:45:29.425Z,36.80
2018-11-26T02:47:57.650Z,28.23
2018-11-26T02:50:25.881Z,27.20
2018-11-26T02:52:54.245Z,29.37
2018-11-26T02:58:21.843Z,30.13
2018-11-26T03:00:50.073Z,33.53
2018-11-26T03:03:18.306Z,27.13
2018-11-26T03:05:46.536Z,29.30
2018-11-26T03:08:14.748Z,30.13
2018-11-26T03:10:42.968Z,27.60
2018-11-26T03:13:11.864Z,24.97
2018-11-26T03:15:40.123Z,26.87
2018-11-26T03:18:08.335Z,24.40
2018-11-26T03:20:36.569Z,28.40
2018-11-26T03:23:04.902Z,24.30
2018-11-26T03:25:33.204Z,21.30
2018-11-26T03:28:01.508Z,21.87
2018-11-26T03:30:29.717Z,25.17
2018-11-26T03:32:58.069Z,20.97
2018-11-26T03:35:26.317Z,26.57
2018-11-26T03:37:54.529Z,28.23
2018-11-26T03:40:22.751Z,28.23
2018-11-26T03:42:51.009Z,22.50
2018-11-26T03:47:54.012Z,23.53
2018-11-26T03:50:22.219Z,29.17
2018-11-26T03:52:50.437Z,24.13
2018-11-26T03:55:18.668Z,24.20
2018-11-26T03:57:46.884Z,22.27
2018-11-26T04:00:16.381Z,30.90
2018-11-26T04:02:44.687Z,25.33
2018-11-26T04:05:13.056Z,30.77
2018-11-26T04:07:41.317Z,28.70
2018-11-26T04:10:11.628Z,21.50
2018-11-26T04:12:39.885Z,22.60
2018-11-26T04:15:12.488Z,25.47
2018-11-26T04:17:40.715Z,26.97
2018-11-26T04:20:09.221Z,31.80
2018-11-26T04:22:37.569Z,23.70
2018-11-26T04:25:07.052Z,27.33
2018-11-26T04:27:35.423Z,28.17
2018-11-26T04:30:04.008Z,29.70
2018-11-26T04:32:32.208Z,27.30
2018-11-26T04:35:00.411Z,28.43
2018-11-26T04:37:28.668Z,25.87
2018-11-26T04:39:56.883Z,28.60
2018-11-26T04:42:25.092Z,22.13
2018-11-26T04:44:53.417Z,24.00
2018-11-26T04:47:21.640Z,22.60
2018-11-26T04:49:49.887Z,20.37
2018-11-26T04:52:18.147Z,21.60
2018-11-26T04:54:46.353Z,19.60
2018-11-26T04:57:14.603Z,21.90
2018-11-26T04:59:42.921Z,20.60
2018-11-26T05:02:11.135Z,18.50
2018-11-26T05:04:39.350Z,18.40
2018-11-26T05:07:07.688Z,13.27
2018-11-26T05:09:37.628Z,18.97
2018-11-26T05:12:07.756Z,15.00
2018-11-26T05:14:35.983Z,15.70
2018-11-26T05:17:04.250Z,18.53
2018-11-26T05:19:32.476Z,15.00
2018-11-26T05:22:00.721Z,14.10
2018-11-26T05:24:28.953Z,12.57
2018-11-26T05:26:57.556Z,12.63
2018-11-26T05:29:25.789Z,9.90
2018-11-26T05:31:54.053Z,9.47
2018-11-26T05:34:22.355Z,14.13
2018-11-26T05:36:50.613Z,11.20
2018-11-26T05:39:18.880Z,11.20
2018-11-26T05:41:47.107Z,13.63
2018-11-26T05:44:15.371Z,18.20
2018-11-26T05:46:43.580Z,17.87
2018-11-26T05:49:11.956Z,34.37
2018-11-26T05:51:40.214Z,15.30
2018-11-26T05:54:08.468Z,17.53
2018-11-26T05:56:36.708Z,16.40
2018-11-26T05:59:05.072Z,17.83
2018-11-26T06:01:33.340Z,17.03
2018-11-26T06:04:01.609Z,15.27
2018-11-26T06:06:29.860Z,16.10
2018-11-26T06:08:58.086Z,17.03
2018-11-26T06:11:26.340Z,15.67
2018-11-26T06:13:54.604Z,19.70
2018-11-26T06:16:22.853Z,15.97
2018-11-26T06:18:51.113Z,15.33
2018-11-26T06:21:19.373Z,19.43
2018-11-26T06:23:47.696Z,19.20
2018-11-26T06:26:16.006Z,23.07
2018-11-26T06:28:44.259Z,16.90
2018-11-26T06:31:12.531Z,17.90
2018-11-26T06:33:40.845Z,21.87
2018-11-26T06:36:09.084Z,18.40
2018-11-26T06:38:37.290Z,21.27
2018-11-26T06:41:05.632Z,16.70
2018-11-26T06:43:33.932Z,18.00
2018-11-26T06:46:02.125Z,18.83
2018-11-26T06:48:30.383Z,21.93
2018-11-26T06:50:58.636Z,18.97
2018-11-26T06:53:26.886Z,18.90
2018-11-26T06:55:55.173Z,20.00
2018-11-26T06:58:23.392Z,18.70
2018-11-26T07:00:51.638Z,18.63
2018-11-26T07:03:19.912Z,19.00
2018-11-26T07:05:48.160Z,20.80
2018-11-26T07:08:16.403Z,21.30
2018-11-26T07:10:44.713Z,23.30
2018-11-26T07:13:12.957Z,26.97
2018-11-26T07:15:41.191Z,24.87
2018-11-26T07:18:09.453Z,25.17
2018-11-26T07:20:37.981Z,26.27
2018-11-26T07:23:06.280Z,28.93
2018-11-26T07:25:34.555Z,29.20
2018-11-26T07:28:05.243Z,31.07
2018-11-26T07:30:33.476Z,32.03
2018-11-26T07:33:02.451Z,26.50
2018-11-26T07:35:31.640Z,29.90
2018-11-26T07:37:59.891Z,26.53
2018-11-26T07:40:28.541Z,24.37
2018-11-26T07:43:08.428Z,26.47
2018-11-26T07:45:36.738Z,22.50
2018-11-26T07:48:05.657Z,28.97
2018-11-26T07:50:34.789Z,25.70
2018-11-26T07:53:03.077Z,28.77
2018-11-26T07:55:31.316Z,27.20
2018-11-26T07:57:59.528Z,27.33
2018-11-26T08:00:28.099Z,31.47
2018-11-26T08:02:56.479Z,35.60
2018-11-26T08:05:24.730Z,30.30
2018-11-26T08:07:53.012Z,33.20
2018-11-26T08:10:22.201Z,33.63
2018-11-26T08:12:51.618Z,30.63
2018-11-26T08:15:22.449Z,30.87
2018-11-26T08:17:49.662Z,31.10
2018-11-26T08:20:17.931Z,35.10
2018-11-26T08:22:46.353Z,27.70
2018-11-26T08:25:16.792Z,30.60
2018-11-26T08:27:45.874Z,40.97
2018-11-26T08:30:16.052Z,35.77
2018-11-26T08:32:45.408Z,32.83
2018-11-26T08:35:14.692Z,30.27
2018-11-26T08:37:48.258Z,31.00
2018-11-26T08:40:48.599Z,33.90
2018-11-26T08:43:19.855Z,30.33
2018-11-26T08:45:55.147Z,34.47
2018-11-26T08:48:28.371Z,38.23
2018-11-26T08:51:00.712Z,31.17
2018-11-26T08:53:28.972Z,31.20
2018-11-26T08:56:12.865Z,36.03
2018-11-26T08:58:41.083Z,33.73
2018-11-26T09:01:14.859Z,37.63
2018-11-26T09:03:53.316Z,33.50
2018-11-26T09:06:21.968Z,39.03
2018-11-26T09:08:50.172Z,35.63
2018-11-26T09:11:18.475Z,39.60
2018-11-26T09:13:46.672Z,29.97
2018-11-26T09:16:14.966Z,37.33
2018-11-26T09:18:43.196Z,39.23
2018-11-26T09:21:11.410Z,31.63
2018-11-26T09:23:39.682Z,37.63
2018-11-26T09:26:07.905Z,31.57
2018-11-26T09:28:36.104Z,34.93
2018-11-26T09:31:04.663Z,34.40
2018-11-26T09:33:32.948Z,33.13
2018-11-26T09:36:01.156Z,35.83
2018-11-26T09:38:29.356Z,35.67
2018-11-26T09:40:57.573Z,36.10
2018-11-26T09:43:25.769Z,36.10
2018-11-26T09:45:53.967Z,43.20
2018-11-26T09:48:22.440Z,38.60
2018-11-26T09:50:50.644Z,41.20
2018-11-26T09:53:18.848Z,34.00
2018-11-26T09:55:47.061Z,37.77
2018-11-26T09:58:15.261Z,29.80
2018-11-26T10:00:43.468Z,35.60
2018-11-26T10:03:11.756Z,33.77
2018-11-26T10:05:40.055Z,33.20
2018-11-26T10:08:08.264Z,37.13
2018-11-26T10:10:36.504Z,42.13
2018-11-26T10:13:05.348Z,32.80
2018-11-26T10:15:33.576Z,35.20
2018-11-26T10:18:01.817Z,40.53
2018-11-26T10:20:30.012Z,40.67
2018-11-26T10:22:58.209Z,34.13
2018-11-26T10:25:26.464Z,32.33
2018-11-26T10:27:54.672Z,36.20
2018-11-26T10:30:23.801Z,36.73
2018-11-26T10:32:52.686Z,36.37
2018-11-26T10:35:21.488Z,35.73
2018-11-26T10:37:49.706Z,38.63
2018-11-26T10:40:21.507Z,40.27
2018-11-26T10:42:49.736Z,38.03
2018-11-26T10:45:19.075Z,38.43
2018-11-26T10:47:47.307Z,34.90
2018-11-26T10:50:17.275Z,35.33
2018-11-26T10:52:46.871Z,42.10
2018-11-26T10:55:20.247Z,42.03
2018-11-26T10:57:48.507Z,39.17
2018-11-26T11:00:22.052Z,33.50
2018-11-26T11:02:50.742Z,38.40
2018-11-26T11:05:18.951Z,44.00
2018-11-26T11:07:47.148Z,40.33
2018-11-26T11:10:24.258Z,40.33
2018-11-26T11:12:52.467Z,38.40
2018-11-26T11:15:20.871Z,33.87
2018-11-26T11:17:49.266Z,37.87
2018-11-26T11:20:19.433Z,32.23
2018-11-26T11:22:47.647Z,35.40
2018-11-26T11:25:16.691Z,36.37
2018-11-26T11:27:44.974Z,34.37
2018-11-26T11:30:18.394Z,37.53
2018-11-26T11:32:46.595Z,35.07
2018-11-26T11:35:15.396Z,37.80
2018-11-26T11:37:44.782Z,42.90
2018-11-26T11:40:16.972Z,46.27
2018-11-26T11:42:45.245Z,74.87
2018-11-26T11:45:13.958Z,51.30
2018-11-26T11:47:42.223Z,53.83
2018-11-26T11:50:13.556Z,52.97
2018-11-26T11:52:41.798Z,49.67
2018-11-26T11:55:12.161Z,81.13
2018-11-26T11:57:40.402Z,69.23
2018-11-26T12:00:50.035Z,56.00
2018-11-26T12:03:19.429Z,235.97
2018-11-26T12:05:47.637Z,60.00
2018-11-26T12:08:15.974Z,44.27
2018-11-26T12:10:44.194Z,42.87
2018-11-26T12:13:13.610Z,50.80
2018-11-26T12:15:43.313Z,48.80
2018-11-26T12:18:12.062Z,40.63
2018-11-26T12:20:40.267Z,46.53
2018-11-26T12:23:08.496Z,45.47
2018-11-26T12:25:36.809Z,47.33
2018-11-26T12:28:05.061Z,51.40
2018-11-26T12:30:34.820Z,38.50
2018-11-26T12:33:03.137Z,45.50
2018-11-26T12:35:31.358Z,41.10
2018-11-26T12:37:59.597Z,36.30
2018-11-26T12:40:27.846Z,45.70
2018-11-26T12:42:58.261Z,38.50
2018-11-26T12:45:27.802Z,36.90
2018-11-26T12:47:56.012Z,41.60
2018-11-26T12:50:24.233Z,43.67
2018-11-26T12:52:52.453Z,35.60
2018-11-26T12:55:21.755Z,37.93
2018-11-26T12:57:51.112Z,42.10
2018-11-26T13:00:23.257Z,48.93
2018-11-26T13:02:56.537Z,39.60
2018-11-26T13:05:24.765Z,37.40
2018-11-26T13:07:52.976Z,51.80
2018-11-26T13:10:22.129Z,42.17
2018-11-26T13:12:50.964Z,62.03
2018-11-26T13:15:20.461Z,47.10
2018-11-26T13:17:48.677Z,47.23
2018-11-26T13:20:22.403Z,46.90
2018-11-26T13:22:51.233Z,43.00
2018-11-26T13:25:21.893Z,45.50
2018-11-26T13:27:53.427Z,46.33
2018-11-26T13:30:24.077Z,47.17
2018-11-26T13:32:53.652Z,54.43
2018-11-26T13:35:21.870Z,50.47
2018-11-26T13:37:50.185Z,54.23
2018-11-26T13:40:18.993Z,54.33
2018-11-26T13:42:47.316Z,55.87
2018-11-26T13:45:18.829Z,49.97
2018-11-26T13:47:47.033Z,44.77
2018-11-26T13:50:18.030Z,48.67
2018-11-26T13:52:46.257Z,40.60
2018-11-26T13:55:14.471Z,39.50
2018-11-26T13:57:42.681Z,39.47
2018-11-26T14:00:13.125Z,42.53
2018-11-26T14:02:41.341Z,39.07
2018-11-26T14:05:11.477Z,41.77
2018-11-26T14:07:39.799Z,41.00
2018-11-26T14:10:11.702Z,36.83
2018-11-26T14:12:40.503Z,36.03
2018-11-26T14:15:10.433Z,46.90
2018-11-26T14:17:38.770Z,40.90
2018-11-26T14:20:10.897Z,35.20
2018-11-26T14:22:39.301Z,34.20
2018-11-26T14:25:15.863Z,32.97
2018-11-26T14:27:44.378Z,28.67
2018-11-26T14:30:30.558Z,28.77
2018-11-26T14:32:58.855Z,32.53
2018-11-26T14:35:27.090Z,23.00
2018-11-26T14:37:58.390Z,24.43
2018-11-26T14:40:30.018Z,22.13
2018-11-26T14:42:58.271Z,23.93
2018-11-26T14:45:26.481Z,24.70
2018-11-26T14:47:54.715Z,21.27
2018-11-26T14:50:22.969Z,26.50
2018-11-26T14:52:51.217Z,31.80
2018-11-26T14:55:21.959Z,28.97
2018-11-26T14:57:50.196Z,28.70
2018-11-26T15:00:19.118Z,27.70
2018-11-26T15:02:47.334Z,28.43
2018-11-26T15:05:15.812Z,28.77
2018-11-26T15:07:44.197Z,26.20
2018-11-26T15:10:14.523Z,27.83
2018-11-26T15:12:42.831Z,22.93
2018-11-26T15:15:13.285Z,35.53
2018-11-26T15:17:42.512Z,21.70
2018-11-26T15:20:15.270Z,25.93
2018-11-26T15:22:43.475Z,24.47
2018-11-26T15:25:14.149Z,20.20
2018-11-26T15:27:42.422Z,23.47
2018-11-26T15:30:15.005Z,19.40
2018-11-26T15:32:43.334Z,26.10
2018-11-26T15:35:12.919Z,20.43
2018-11-26T15:37:41.194Z,22.43
2018-11-26T15:40:10.403Z,22.67
2018-11-26T15:42:38.834Z,22.20
2018-11-26T15:45:27.996Z,20.17
2018-11-26T15:48:00.573Z,16.73
2018-11-26T15:50:28.881Z,16.00
2018-11-26T15:52:57.086Z,16.07
2018-11-26T15:55:25.369Z,15.10
2018-11-26T15:57:53.614Z,19.53
2018-11-26T16:00:24.326Z,17.83
2018-11-26T16:02:52.955Z,24.80
2018-11-26T16:05:27.766Z,18.80
2018-11-26T16:07:59.482Z,19.40
2018-11-26T16:10:27.681Z,21.47
2018-11-26T16:12:57.255Z,18.87
2018-11-26T16:15:28.025Z,16.13
2018-11-26T16:17:58.109Z,16.53
2018-11-26T16:20:26.989Z,16.93
2018-11-26T16:22:55.906Z,17.70
2018-11-26T16:25:24.661Z,16.00
2018-11-26T16:27:52.857Z,15.03
2018-11-26T16:30:21.415Z,15.47
2018-11-26T16:32:53.007Z,16.93
2018-11-26T16:35:23.479Z,18.03
2018-11-26T16:37:51.696Z,24.10
2018-11-26T16:40:19.906Z,21.57
2018-11-26T16:42:48.455Z,23.33
2018-11-26T16:45:17.785Z,24.33
2018-11-26T16:47:47.238Z,23.93
2018-11-26T16:50:16.401Z,22.20
2018-11-26T16:52:44.617Z,30.47
2018-11-26T16:55:13.645Z,18.50
2018-11-26T16:57:42.051Z,17.00
2018-11-26T17:00:19.342Z,13.27
2018-11-26T17:02:48.669Z,14.63
2018-11-26T17:05:22.566Z,20.40
2018-11-26T17:07:50.567Z,20.57
2018-11-26T17:10:18.765Z,20.50
2018-11-26T17:12:47.066Z,17.70
2018-11-26T17:15:16.822Z,17.37
2018-11-26T17:17:45.142Z,16.67
2018-11-26T17:20:14.213Z,15.00
2018-11-26T17:22:42.648Z,13.43
2018-11-26T17:25:11.762Z,22.03
2018-11-26T17:27:40.548Z,14.60
2018-11-26T17:30:15.901Z,16.73
2018-11-26T17:32:45.288Z,15.77
2018-11-26T17:35:14.493Z,17.50
2018-11-26T17:37:43.131Z,16.90
2018-11-26T17:40:13.614Z,28.43
2018-11-26T17:42:41.841Z,26.77
2018-11-26T17:45:11.417Z,23.70
2018-11-26T17:47:40.069Z,23.37
2018-11-26T17:50:16.841Z,20.87
2018-11-26T17:52:45.044Z,21.90
2018-11-26T17:55:13.265Z,23.73
2018-11-26T17:57:41.513Z,28.33
2018-11-26T18:00:12.093Z,21.30
2018-11-26T18:02:40.569Z,21.50
2018-11-26T18:05:16.876Z,14.77
2018-11-26T18:07:45.913Z,12.80
2018-11-26T18:10:15.128Z,13.80
2018-11-26T18:12:43.372Z,17.60
2018-11-26T18:15:12.841Z,23.30
2018-11-26T18:17:41.077Z,19.23
2018-11-26T18:20:13.845Z,17.53
2018-11-26T18:22:42.784Z,18.90
2018-11-26T18:25:11.524Z,18.80
2018-11-26T18:27:42.169Z,20.87
2018-11-26T18:30:14.645Z,17.00
2018-11-26T18:32:42.978Z,17.47
2018-11-26T18:35:11.277Z,23.30
2018-11-26T18:37:39.485Z,23.03
2018-11-26T18:40:12.262Z,23.47
2018-11-26T18:42:40.471Z,19.73
2018-11-26T18:45:12.655Z,17.27
2018-11-26T18:47:40.861Z,19.27
2018-11-26T18:50:12.137Z,20.10
2018-11-26T18:52:40.357Z,18.83
2018-11-26T18:55:09.405Z,18.87
2018-11-26T18:57:37.630Z,18.07
2018-11-26T19:00:12.101Z,16.33
2018-11-26T19:02:40.310Z,19.90
2018-11-26T19:05:09.857Z,14.60
2018-11-26T19:07:38.086Z,13.60
2018-11-26T19:10:10.473Z,12.93
2018-11-26T19:12:38.706Z,11.50
2018-11-26T19:15:11.802Z,10.80
2018-11-26T19:17:40.062Z,13.20
2018-11-26T19:20:10.878Z,10.17
2018-11-26T19:22:39.414Z,12.20
2018-11-26T19:25:09.479Z,11.30
2018-11-26T19:27:37.705Z,9.20
2018-11-26T19:30:09.949Z,12.00
2018-11-26T19:32:38.179Z,14.90
2018-11-26T19:35:08.225Z,12.73
2018-11-26T19:37:36.461Z,16.40
2018-11-26T19:40:11.889Z,17.97
2018-11-26T19:42:40.403Z,22.20
2018-11-26T19:45:19.654Z,21.60
2018-11-26T19:47:47.878Z,41.57
2018-11-26T19:50:17.118Z,42.87
2018-11-26T19:52:46.219Z,34.13
2018-11-26T19:55:16.037Z,32.43
2018-11-26T19:57:44.268Z,32.90
2018-11-26T20:00:18.939Z,26.57
2018-11-26T20:02:49.037Z,26.50
2018-11-26T20:05:21.637Z,34.50
2018-11-26T20:07:49.852Z,31.10
2018-11-26T20:10:18.496Z,30.60
2018-11-26T20:12:46.789Z,16.87
2018-11-26T20:15:16.422Z,18.73
2018-11-26T20:17:44.631Z,23.17
2018-11-26T20:20:12.858Z,17.60
2018-11-26T20:22:41.065Z,19.90
2018-11-26T20:25:11.196Z,15.83
2018-11-26T20:27:39.975Z,14.23
2018-11-26T20:30:11.141Z,14.63
2018-11-26T20:32:40.031Z,18.67
2018-11-26T20:35:09.653Z,16.57
2018-11-26T20:37:37.889Z,14.90
2018-11-26T20:40:10.801Z,21.23
2018-11-26T20:42:39.682Z,18.63
2018-11-26T20:45:11.984Z,17.37
2018-11-26T20:47:40.186Z,33.50
2018-11-26T20:50:14.602Z,17.87
2018-11-26T20:52:42.818Z,25.83
2018-11-26T20:55:12.845Z,17.10
2018-11-26T20:57:41.070Z,19.63
2018-11-26T21:00:12.271Z,25.67
2018-11-26T21:02:40.516Z,16.10
2018-11-26T21:05:08.801Z,19.23
2018-11-26T21:07:37.031Z,28.90
2018-11-26T21:10:07.510Z,28.50
2018-11-26T21:12:35.747Z,24.37
2018-11-26T21:15:05.721Z,23.43
2018-11-26T21:17:33.962Z,27.57
2018-11-26T21:20:02.336Z,60.07
2018-11-26T21:22:30.597Z,44.03
2018-11-26T21:24:58.849Z,52.20
2018-11-26T21:27:27.076Z,30.43
2018-11-26T21:29:55.315Z,25.77
2018-11-26T21:32:23.538Z,25.90
2018-11-26T21:34:51.781Z,19.27
2018-11-26T21:37:20.026Z,21.27
2018-11-26T21:39:48.253Z,22.10
2018-11-26T21:42:16.526Z,23.37
2018-11-26T21:44:44.737Z,21.73
2018-11-26T21:47:12.967Z,21.77
2018-11-26T21:49:41.252Z,23.97
2018-11-26T21:52:09.497Z,23.37
2018-11-26T21:54:37.713Z,18.87
2018-11-26T21:57:06.486Z,24.07
2018-11-26T21:59:34.713Z,24.67
2018-11-26T22:02:02.933Z,24.50
2018-11-26T22:04:31.190Z,22.60
2018-11-26T22:06:59.433Z,22.40
2018-11-26T22:09:27.669Z,22.10
2018-11-26T22:11:55.911Z,25.63
2018-11-26T22:14:24.129Z,24.20
2018-11-26T22:16:52.412Z,25.40
2018-11-26T22:19:20.759Z,21.13
2018-11-26T22:21:48.989Z,19.30
2018-11-26T22:24:17.221Z,20.73
2018-11-26T22:26:45.470Z,17.63
2018-11-26T22:29:13.702Z,18.63
2018-11-26T22:31:42.030Z,22.97
2018-11-26T22:34:10.309Z,22.30
2018-11-26T22:36:38.577Z,20.30
2018-11-26T22:39:09.993Z,28.00
2018-11-26T22:41:38.389Z,26.67
2018-11-26T22:44:06.609Z,28.43
2018-11-26T22:46:35.147Z,27.70
2018-11-26T22:49:03.360Z,25.47
2018-11-26T22:51:31.693Z,21.70
2018-11-26T22:53:59.923Z,23.53
2018-11-26T22:56:28.145Z,20.40
2018-11-26T22:58:56.353Z,18.57
2018-11-26T23:01:24.605Z,22.20
2018-11-26T23:03:52.822Z,21.03
2018-11-26T23:06:21.039Z,22.40
2018-11-26T23:08:49.272Z,21.30
2018-11-26T23:11:17.491Z,17.80
2018-11-26T23:13:45.700Z,27.43
2018-11-26T23:16:14.025Z,23.47
2018-11-26T23:18:42.412Z,22.73
2018-11-26T23:21:10.652Z,23.33
2018-11-26T23:23:38.878Z,20.13
2018-11-26T23:26:07.103Z,24.57
2018-11-26T23:28:35.323Z,25.27
2018-11-26T23:31:03.593Z,25.23
2018-11-26T23:33:31.805Z,25.13
2018-11-26T23:36:00.824Z,24.93
2018-11-26T23:38:29.058Z,21.73
2018-11-26T23:40:57.273Z,22.33
2018-11-26T23:43:25.486Z,28.47
2018-11-26T23:45:53.753Z,27.37
2018-11-26T23:48:21.956Z,30.70
2018-11-26T23:50:50.189Z,24.53
2018-11-26T23:53:18.433Z,25.50
2018-11-26T23:55:46.639Z,25.20
2018-11-26T23:58:14.850Z,28.90
